Flight Track Log - Related Links

Times and Time Zones

All times are in EDT time to prevent confusion due to time zone crossing. See the HRF60K flight status page for this flight to view local times or setup timezone preferences in your user account.

Time Position Orientation Groundspeed Altitude Reporting Facility
EDT Latitude Longitude Course Direction KTS MPH feet Rate Location/Type
Thu 06:00:13 PM 40.8333 -74.1167 237° Southwest 123 142 1,300  Level New York TRACON
Thu 06:01:13 PM 40.8167 -74.1500 237° Southwest 138 159 1,900 550 Climbing New York TRACON
Thu 06:02:13 PM 40.8000 -74.2000 246° West 156 180 2,400 524 Climbing New York TRACON
Thu 06:03:19 PM 40.7667 -74.2333 217° Southwest 154 177 3,000 571 Climbing New York TRACON
Thu 06:04:19 PM 40.7167 -74.2167 166° South 160 184 3,600 574 Climbing New York TRACON
Thu 06:05:14 PM 40.6833 -74.2000 159° South 148 170 4,100 579 Climbing New York TRACON
Thu 06:06:13 PM 40.6500 -74.2000 180° South 157 181 4,700 403 Climbing New York TRACON
Thu 06:07:13 PM 40.6167 -74.2167 201° Southwest 157 181 4,900 100 Climbing New York TRACON
Thu 06:08:13 PM 40.5833 -74.2500 217° Southwest 171 197 4,900 50 Level New York TRACON
Thu 06:09:13 PM 40.5333 -74.2667 194° South 182 209 5,000 50 Climbing New York TRACON
Thu 06:10:13 PM 40.4833 -74.2500 166° South 180 207 5,000 22 Level New York TRACON
Thu 06:53:54 PM 38.7564 -75.2483 207° Southwest 165 190 6,000 22 Climbing Washington Center
Thu 06:54:00 PM 38.8131 -75.1930 203° Southwest  Level FlightAware Approximate
Thu 06:55:00 PM 38.7733 -75.2172 207° Southwest  Level FlightAware Approximate
Thu 06:55:01 PM 38.7128 -75.2803 210° Southwest 159 183 6,000  Level Washington Center
Thu 06:56:00 PM 38.7339 -75.2426 207° Southwest  Level FlightAware Approximate
Thu 06:56:08 PM 38.6689 -75.3072 206° Southwest 156 180 6,000  Level Washington Center
Thu 06:57:00 PM 38.6945 -75.2679 207° Southwest  Level FlightAware Approximate
Thu 06:57:03 PM 38.6336 -75.3286 205° Southwest 157 181 6,000  Level Washington Center
Thu 06:58:00 PM 38.6552 -75.2932 207° Southwest  Level FlightAware Approximate
Thu 06:58:09 PM 38.5900 -75.3581 208° Southwest 153 176 6,000  Level Washington Center
Thu 06:59:00 PM 38.6158 -75.3185 207° Southwest  Level FlightAware Approximate
Thu 06:59:07 PM 38.5525 -75.3819 206° Southwest 152 175 6,000  Level Washington Center
Thu 07:00:08 PM 38.5150 -75.4033 204° Southwest 150 173 6,000  Level Washington Center
Thu 07:01:09 PM 38.4775 -75.4247 204° Southwest 151 174 6,000  Level Washington Center
Thu 07:02:10 PM 38.4336 -75.4433 198° South 150 173 6,000  Level Washington Center
Thu 07:03:11 PM 38.3961 -75.4644 204° Southwest 150 173 6,000  Level Washington Center
Thu 07:04:11 PM 38.3567 -75.4831 200° South 154 177 6,000  Level Washington Center
Thu 07:05:12 PM 38.3192 -75.5017 201° Southwest 153 176 6,000  Level Washington Center
Thu 07:06:12 PM 38.2772 -75.5256 204° Southwest 153 176 6,000  Level Washington Center
Thu 07:07:13 PM 38.2356 -75.5469 202° Southwest 155 178 6,000  Level Washington Center
Thu 07:08:13 PM 38.1961 -75.5653 200° South 155 178 6,000  Level Washington Center
Thu 07:09:15 PM 38.1564 -75.5864 203° Southwest 155 178 6,000  Level Washington Center
Thu 07:10:15 PM 38.1128 -75.6050 199° South 159 183 6,000  Level Washington Center
Thu 07:11:17 PM 38.0731 -75.6261 203° Southwest 159 183 6,000  Level Washington Center
Thu 07:12:17 PM 38.0314 -75.6497 204° Southwest 156 180 6,000  Level Washington Center
Thu 07:13:11 PM 37.9939 -75.6681 201° Southwest 154 177 6,000  Level Washington Center
Thu 07:14:13 PM 37.9561 -75.6867 201° Southwest 153 176 6,000  Level Washington Center
Thu 07:15:13 PM 37.9144 -75.7050 199° South 155 178 6,000  Level Washington Center
Thu 07:15:51 PM 37.8872 -75.7233 208° Southwest 157 181 6,000  Level Washington Center
Thu 07:16:54 PM 37.8414 -75.7469 202° Southwest 157 181 6,000  Level Washington Center
Thu 07:17:55 PM 37.8039 -75.7653 201° Southwest 156 180 6,000  Level Washington Center
Thu 07:18:49 PM 37.7664 -75.7836 201° Southwest 157 181 6,000  Level Washington Center
Thu 07:19:57 PM 37.7225 -75.8019 198° South 159 183 6,000  Level Washington Center
Thu 07:20:57 PM 37.6786 -75.8253 203° Southwest 158 182 6,000  Level Washington Center
Thu 07:22:05 PM 37.6347 -75.8461 201° Southwest 157 181 6,000  Level Washington Center
Thu 07:22:59 PM 37.5994 -75.8617 199° South 155 178 6,000  Level Washington Center
Thu 07:24:06 PM 37.5556 -75.8878 205° Southwest 152 175 6,000 -188 Level Washington Center
Thu 07:25:07 PM 37.5158 -75.9061 200° South 151 174 5,600 -694 Descending Washington Center
Thu 07:26:07 PM 37.4739 -75.9267 201° Southwest 159 183 4,600 -966 Descending Washington Center
Thu 07:27:05 PM 37.4322 -75.9475 202° Southwest 153 176 3,700 -768 Descending Washington Center
Thu 07:28:12 PM 37.3842 -75.9683 199° South 163 188 3,000 -326 Descending Washington Center
Thu 07:29:14 PM 37.3486 -75.9836 199° South 138 159 3,000  Level Washington Center
Thu 07:30:08 PM 37.3131 -76.0019 202° Southwest 141 162 3,000  Level Washington Center
Thu 07:31:09 PM 37.2778 -76.0094 190° South 146 168 3,000  Level Washington Center
Thu 07:32:03 PM 37.2400 -76.0172 189° South 143 165 3,000  Level Washington Center
Thu 07:33:04 PM 37.2006 -76.0272 191° South 142 163 3,000 -99 Level Washington Center
Thu 07:34:04 PM 37.1586 -76.0350 188° South 143 165 2,800 -397 Descending Washington Center
Thu 07:35:05 PM 37.1211 -76.0400 186° South 145 167 2,200 -393 Descending Washington Center
Thu 07:36:06 PM 37.0814 -76.0475 189° South 139 160 2,000 -103 Descending Washington Center
Thu 07:37:01 PM 37.0522 -76.0525 188° South 111 128 2,000  Level Washington Center
Thu 07:38:01 PM 37.0272 -76.0731 213° Southwest 110 127 2,000  Level Washington Center
Thu 07:39:02 PM 37.0019 -76.0989 219° Southwest 112 129 2,000 -98 Level Washington Center
Thu 07:40:03 PM 36.9769 -76.1222 217° Southwest 111 128 1,800 -403 Descending Washington Center
Thu 07:41:16 PM 36.9497 -76.1481 217° Southwest 96 110 1,100 -537 Descending Washington Center
Thu 07:42:17 PM 36.9286 -76.1686 218° Southwest 97 112 600 -470 Descending Washington Center
Thu 07:43:11 PM 36.9097 -76.1867 217° Southwest 103 119 200 -444 Descending Washington Center

Login

Don't have an account? Register now (free) for customized features, flight alerts, and more!